sensor_id;sensor_type;location;lat;lon;timestamp;P1;durP1;ratioP1;P2;durP2;ratioP2
15706;SDS011;7953;54.302;10.128;2022-09-13T00:02:13;4.43;;;4.10;;
15706;SDS011;7953;54.302;10.128;2022-09-13T00:04:40;4.47;;;3.73;;
15706;SDS011;7953;54.302;10.128;2022-09-13T00:07:06;5.90;;;4.07;;
15706;SDS011;7953;54.302;10.128;2022-09-13T00:09:33;5.27;;;4.20;;
15706;SDS011;7953;54.302;10.128;2022-09-13T00:12:01;4.63;;;4.23;;
15706;SDS011;7953;54.302;10.128;2022-09-13T00:14:28;4.77;;;4.30;;
15706;SDS011;7953;54.302;10.128;2022-09-13T00:16:55;5.37;;;4.87;;
15706;SDS011;7953;54.302;10.128;2022-09-13T00:19:23;5.30;;;4.80;;
15706;SDS011;7953;54.302;10.128;2022-09-13T00:21:50;5.60;;;4.80;;
15706;SDS011;7953;54.302;10.128;2022-09-13T00:24:17;8.73;;;5.60;;
15706;SDS011;7953;54.302;10.128;2022-09-13T00:26:44;6.10;;;5.13;;
15706;SDS011;7953;54.302;10.128;2022-09-13T00:29:11;6.30;;;5.80;;
15706;SDS011;7953;54.302;10.128;2022-09-13T00:31:38;6.40;;;5.90;;
15706;SDS011;7953;54.302;10.128;2022-09-13T00:34:05;6.53;;;5.93;;
15706;SDS011;7953;54.302;10.128;2022-09-13T00:36:33;6.30;;;5.70;;
15706;SDS011;7953;54.302;10.128;2022-09-13T00:39:00;7.07;;;5.70;;
15706;SDS011;7953;54.302;10.128;2022-09-13T00:41:27;6.53;;;5.93;;
15706;SDS011;7953;54.302;10.128;2022-09-13T00:43:55;6.97;;;6.17;;
15706;SDS011;7953;54.302;10.128;2022-09-13T00:46:25;6.83;;;6.20;;
15706;SDS011;7953;54.302;10.128;2022-09-13T00:48:58;6.20;;;5.63;;
15706;SDS011;7953;54.302;10.128;2022-09-13T00:51:30;7.60;;;5.90;;
15706;SDS011;7953;54.302;10.128;2022-09-13T00:53:58;7.47;;;5.97;;
15706;SDS011;7953;54.302;10.128;2022-09-13T00:56:27;6.53;;;5.97;;
15706;SDS011;7953;54.302;10.128;2022-09-13T00:59:00;6.23;;;5.63;;
15706;SDS011;7953;54.302;10.128;2022-09-13T01:01:31;6.47;;;5.97;;
15706;SDS011;7953;54.302;10.128;2022-09-13T01:04:02;6.67;;;5.97;;
15706;SDS011;7953;54.302;10.128;2022-09-13T01:06:30;6.70;;;6.10;;
15706;SDS011;7953;54.302;10.128;2022-09-13T01:09:02;6.93;;;6.23;;
15706;SDS011;7953;54.302;10.128;2022-09-13T01:11:32;7.50;;;6.17;;
15706;SDS011;7953;54.302;10.128;2022-09-13T01:14:05;6.70;;;6.10;;
15706;SDS011;7953;54.302;10.128;2022-09-13T01:16:33;7.97;;;7.10;;
15706;SDS011;7953;54.302;10.128;2022-09-13T01:19:00;7.00;;;6.37;;
15706;SDS011;7953;54.302;10.128;2022-09-13T01:27:31;10.87;;;7.27;;
15706;SDS011;7953;54.302;10.128;2022-09-13T01:30:15;7.97;;;6.53;;
15706;SDS011;7953;54.302;10.128;2022-09-13T01:35:45;7.57;;;6.87;;
15706;SDS011;7953;54.302;10.128;2022-09-13T01:38:25;10.10;;;7.13;;
15706;SDS011;7953;54.302;10.128;2022-09-13T01:41:04;8.23;;;7.43;;
15706;SDS011;7953;54.302;10.128;2022-09-13T01:43:41;8.40;;;7.53;;
15706;SDS011;7953;54.302;10.128;2022-09-13T01:46:23;8.27;;;7.47;;
15706;SDS011;7953;54.302;10.128;2022-09-13T01:48:54;8.97;;;8.17;;
15706;SDS011;7953;54.302;10.128;2022-09-13T01:51:26;8.30;;;7.47;;
15706;SDS011;7953;54.302;10.128;2022-09-13T01:53:57;9.00;;;8.10;;
15706;SDS011;7953;54.302;10.128;2022-09-13T01:56:37;11.40;;;8.00;;
15706;SDS011;7953;54.302;10.128;2022-09-13T01:59:10;9.73;;;8.23;;
15706;SDS011;7953;54.302;10.128;2022-09-13T02:01:43;9.60;;;8.70;;
15706;SDS011;7953;54.302;10.128;2022-09-13T02:04:16;10.67;;;8.33;;
15706;SDS011;7953;54.302;10.128;2022-09-13T02:06:52;11.30;;;8.70;;
15706;SDS011;7953;54.302;10.128;2022-09-13T02:09:29;9.07;;;8.07;;
15706;SDS011;7953;54.302;10.128;2022-09-13T02:12:01;10.07;;;9.07;;
15706;SDS011;7953;54.302;10.128;2022-09-13T02:14:33;13.93;;;10.03;;
15706;SDS011;7953;54.302;10.128;2022-09-13T02:17:07;10.90;;;9.77;;
15706;SDS011;7953;54.302;10.128;2022-09-13T02:19:39;10.60;;;9.53;;
15706;SDS011;7953;54.302;10.128;2022-09-13T02:22:12;10.80;;;9.70;;
15706;SDS011;7953;54.302;10.128;2022-09-13T02:24:46;10.10;;;9.10;;
15706;SDS011;7953;54.302;10.128;2022-09-13T02:27:33;11.43;;;10.23;;
15706;SDS011;7953;54.302;10.128;2022-09-13T02:30:05;11.33;;;9.87;;
15706;SDS011;7953;54.302;10.128;2022-09-13T02:32:39;10.37;;;9.27;;
15706;SDS011;7953;54.302;10.128;2022-09-13T02:35:15;10.13;;;9.10;;
15706;SDS011;7953;54.302;10.128;2022-09-13T02:37:56;13.17;;;9.60;;
15706;SDS011;7953;54.302;10.128;2022-09-13T02:40:48;11.67;;;10.57;;
15706;SDS011;7953;54.302;10.128;2022-09-13T02:43:32;11.50;;;9.87;;
15706;SDS011;7953;54.302;10.128;2022-09-13T02:49:15;10.60;;;9.57;;
15706;SDS011;7953;54.302;10.128;2022-09-13T02:51:50;12.87;;;9.53;;
15706;SDS011;7953;54.302;10.128;2022-09-13T02:54:22;11.17;;;9.97;;
15706;SDS011;7953;54.302;10.128;2022-09-13T02:57:04;12.93;;;11.27;;
15706;SDS011;7953;54.302;10.128;2022-09-13T02:59:35;13.07;;;10.33;;
15706;SDS011;7953;54.302;10.128;2022-09-13T03:02:02;11.53;;;10.40;;
15706;SDS011;7953;54.302;10.128;2022-09-13T03:04:36;14.53;;;12.47;;
15706;SDS011;7953;54.302;10.128;2022-09-13T03:07:07;12.80;;;10.50;;
15706;SDS011;7953;54.302;10.128;2022-09-13T03:09:36;11.20;;;10.20;;
15706;SDS011;7953;54.302;10.128;2022-09-13T03:12:12;11.70;;;10.50;;
15706;SDS011;7953;54.302;10.128;2022-09-13T03:14:53;13.03;;;11.67;;
15706;SDS011;7953;54.302;10.128;2022-09-13T03:17:43;13.87;;;11.77;;
15706;SDS011;7953;54.302;10.128;2022-09-13T03:20:27;13.27;;;11.87;;
15706;SDS011;7953;54.302;10.128;2022-09-13T03:23:18;13.03;;;11.73;;
15706;SDS011;7953;54.302;10.128;2022-09-13T03:29:19;14.57;;;12.17;;
15706;SDS011;7953;54.302;10.128;2022-09-13T03:32:19;13.53;;;11.90;;
15706;SDS011;7953;54.302;10.128;2022-09-13T03:34:58;16.10;;;13.27;;
15706;SDS011;7953;54.302;10.128;2022-09-13T03:37:35;18.83;;;14.73;;
15706;SDS011;7953;54.302;10.128;2022-09-13T03:40:11;16.03;;;14.07;;
15706;SDS011;7953;54.302;10.128;2022-09-13T03:42:46;17.00;;;14.27;;
15706;SDS011;7953;54.302;10.128;2022-09-13T03:45:21;19.03;;;14.90;;
15706;SDS011;7953;54.302;10.128;2022-09-13T03:48:01;17.40;;;15.30;;
15706;SDS011;7953;54.302;10.128;2022-09-13T03:50:34;17.27;;;15.00;;
15706;SDS011;7953;54.302;10.128;2022-09-13T03:53:14;18.30;;;15.23;;
15706;SDS011;7953;54.302;10.128;2022-09-13T03:55:51;20.13;;;15.93;;
15706;SDS011;7953;54.302;10.128;2022-09-13T03:58:24;27.53;;;17.20;;
15706;SDS011;7953;54.302;10.128;2022-09-13T04:00:57;21.47;;;17.07;;
15706;SDS011;7953;54.302;10.128;2022-09-13T04:03:27;22.63;;;18.30;;
15706;SDS011;7953;54.302;10.128;2022-09-13T04:05:57;22.43;;;17.77;;
15706;SDS011;7953;54.302;10.128;2022-09-13T04:08:29;25.50;;;17.53;;
15706;SDS011;7953;54.302;10.128;2022-09-13T04:11:12;22.27;;;17.93;;
15706;SDS011;7953;54.302;10.128;2022-09-13T04:13:39;21.30;;;17.57;;
15706;SDS011;7953;54.302;10.128;2022-09-13T04:16:16;23.97;;;18.30;;
15706;SDS011;7953;54.302;10.128;2022-09-13T04:18:49;21.67;;;18.23;;
15706;SDS011;7953;54.302;10.128;2022-09-13T04:21:28;25.30;;;18.73;;
15706;SDS011;7953;54.302;10.128;2022-09-13T04:24:08;24.40;;;18.47;;
15706;SDS011;7953;54.302;10.128;2022-09-13T04:26:42;23.10;;;18.87;;
15706;SDS011;7953;54.302;10.128;2022-09-13T04:29:11;23.33;;;19.10;;
15706;SDS011;7953;54.302;10.128;2022-09-13T04:31:41;26.37;;;20.37;;
15706;SDS011;7953;54.302;10.128;2022-09-13T04:34:10;23.77;;;19.97;;
15706;SDS011;7953;54.302;10.128;2022-09-13T04:36:37;28.53;;;21.17;;
15706;SDS011;7953;54.302;10.128;2022-09-13T04:39:06;26.33;;;22.27;;
15706;SDS011;7953;54.302;10.128;2022-09-13T04:41:33;24.33;;;20.87;;
15706;SDS011;7953;54.302;10.128;2022-09-13T04:44:00;26.03;;;21.17;;
15706;SDS011;7953;54.302;10.128;2022-09-13T04:46:28;27.73;;;22.60;;
15706;SDS011;7953;54.302;10.128;2022-09-13T04:48:55;28.13;;;23.80;;
15706;SDS011;7953;54.302;10.128;2022-09-13T04:51:23;26.53;;;20.93;;
15706;SDS011;7953;54.302;10.128;2022-09-13T04:53:55;29.63;;;21.73;;
15706;SDS011;7953;54.302;10.128;2022-09-13T04:56:25;29.43;;;22.53;;
15706;SDS011;7953;54.302;10.128;2022-09-13T04:58:57;26.90;;;21.93;;
15706;SDS011;7953;54.302;10.128;2022-09-13T05:01:27;26.67;;;20.50;;
15706;SDS011;7953;54.302;10.128;2022-09-13T05:03:56;30.60;;;21.50;;
15706;SDS011;7953;54.302;10.128;2022-09-13T05:06:29;26.30;;;20.13;;
15706;SDS011;7953;54.302;10.128;2022-09-13T05:08:59;26.17;;;19.90;;
15706;SDS011;7953;54.302;10.128;2022-09-13T05:11:31;24.37;;;19.20;;
15706;SDS011;7953;54.302;10.128;2022-09-13T05:14:04;23.70;;;18.77;;
15706;SDS011;7953;54.302;10.128;2022-09-13T05:16:33;24.33;;;17.53;;
15706;SDS011;7953;54.302;10.128;2022-09-13T05:19:00;24.47;;;17.60;;
15706;SDS011;7953;54.302;10.128;2022-09-13T05:21:29;21.80;;;16.37;;
15706;SDS011;7953;54.302;10.128;2022-09-13T05:23:59;26.93;;;18.63;;
15706;SDS011;7953;54.302;10.128;2022-09-13T05:26:27;24.77;;;16.67;;
15706;SDS011;7953;54.302;10.128;2022-09-13T05:28:59;21.27;;;16.13;;
15706;SDS011;7953;54.302;10.128;2022-09-13T05:31:28;19.47;;;14.63;;
15706;SDS011;7953;54.302;10.128;2022-09-13T05:34:00;24.77;;;16.97;;
15706;SDS011;7953;54.302;10.128;2022-09-13T05:42:19;22.03;;;14.77;;
15706;SDS011;7953;54.302;10.128;2022-09-13T05:44:50;21.10;;;14.27;;
15706;SDS011;7953;54.302;10.128;2022-09-13T05:47:23;19.53;;;12.83;;
15706;SDS011;7953;54.302;10.128;2022-09-13T05:50:11;20.67;;;13.80;;
15706;SDS011;7953;54.302;10.128;2022-09-13T05:52:59;22.97;;;13.23;;
15706;SDS011;7953;54.302;10.128;2022-09-13T05:55:44;19.17;;;13.13;;
15706;SDS011;7953;54.302;10.128;2022-09-13T05:58:23;16.80;;;11.67;;
15706;SDS011;7953;54.302;10.128;2022-09-13T06:04:09;17.17;;;9.57;;
15706;SDS011;7953;54.302;10.128;2022-09-13T06:06:57;14.83;;;9.57;;
15706;SDS011;7953;54.302;10.128;2022-09-13T06:09:26;13.90;;;8.53;;
15706;SDS011;7953;54.302;10.128;2022-09-13T06:12:16;12.07;;;7.80;;
15706;SDS011;7953;54.302;10.128;2022-09-13T06:15:11;11.40;;;7.73;;
15706;SDS011;7953;54.302;10.128;2022-09-13T06:24:27;16.03;;;8.90;;
15706;SDS011;7953;54.302;10.128;2022-09-13T06:27:10;14.03;;;8.30;;
15706;SDS011;7953;54.302;10.128;2022-09-13T06:29:52;13.87;;;8.50;;
15706;SDS011;7953;54.302;10.128;2022-09-13T06:32:33;13.93;;;6.83;;
15706;SDS011;7953;54.302;10.128;2022-09-13T06:35:14;12.67;;;6.60;;
15706;SDS011;7953;54.302;10.128;2022-09-13T06:37:55;10.00;;;6.67;;
15706;SDS011;7953;54.302;10.128;2022-09-13T06:40:28;11.97;;;6.47;;
15706;SDS011;7953;54.302;10.128;2022-09-13T06:43:11;17.80;;;7.40;;
15706;SDS011;7953;54.302;10.128;2022-09-13T06:46:05;10.57;;;5.87;;
15706;SDS011;7953;54.302;10.128;2022-09-13T06:48:35;9.77;;;5.97;;
15706;SDS011;7953;54.302;10.128;2022-09-13T06:51:13;9.93;;;5.03;;
15706;SDS011;7953;54.302;10.128;2022-09-13T07:03:11;8.90;;;3.50;;
15706;SDS011;7953;54.302;10.128;2022-09-13T07:05:54;7.30;;;3.40;;
15706;SDS011;7953;54.302;10.128;2022-09-13T07:08:55;12.30;;;2.50;;
15706;SDS011;7953;54.302;10.128;2022-09-13T07:14:24;7.47;;;2.13;;
15706;SDS011;7953;54.302;10.128;2022-09-13T07:17:03;8.07;;;2.33;;
15706;SDS011;7953;54.302;10.128;2022-09-13T07:19:35;7.53;;;1.93;;
15706;SDS011;7953;54.302;10.128;2022-09-13T07:22:33;5.73;;;1.77;;
15706;SDS011;7953;54.302;10.128;2022-09-13T07:25:10;6.40;;;2.47;;
15706;SDS011;7953;54.302;10.128;2022-09-13T07:28:01;10.33;;;2.03;;
15706;SDS011;7953;54.302;10.128;2022-09-13T07:30:47;9.67;;;2.47;;
15706;SDS011;7953;54.302;10.128;2022-09-13T07:33:29;5.80;;;1.90;;
15706;SDS011;7953;54.302;10.128;2022-09-13T07:35:56;9.30;;;1.80;;
15706;SDS011;7953;54.302;10.128;2022-09-13T07:38:33;8.27;;;1.87;;
15706;SDS011;7953;54.302;10.128;2022-09-13T07:41:03;7.63;;;2.40;;
15706;SDS011;7953;54.302;10.128;2022-09-13T07:43:34;5.50;;;1.87;;
15706;SDS011;7953;54.302;10.128;2022-09-13T07:46:04;7.00;;;2.07;;
15706;SDS011;7953;54.302;10.128;2022-09-13T07:48:35;8.53;;;1.90;;
15706;SDS011;7953;54.302;10.128;2022-09-13T07:51:06;4.03;;;1.20;;
15706;SDS011;7953;54.302;10.128;2022-09-13T07:53:39;8.33;;;2.07;;
15706;SDS011;7953;54.302;10.128;2022-09-13T07:56:10;6.13;;;1.40;;
15706;SDS011;7953;54.302;10.128;2022-09-13T07:58:40;7.07;;;1.67;;
15706;SDS011;7953;54.302;10.128;2022-09-13T08:01:13;8.97;;;1.67;;
15706;SDS011;7953;54.302;10.128;2022-09-13T08:03:49;11.93;;;2.20;;
15706;SDS011;7953;54.302;10.128;2022-09-13T08:06:17;10.40;;;1.93;;
15706;SDS011;7953;54.302;10.128;2022-09-13T08:08:44;6.87;;;1.77;;
15706;SDS011;7953;54.302;10.128;2022-09-13T08:11:13;4.43;;;1.70;;
15706;SDS011;7953;54.302;10.128;2022-09-13T08:13:43;5.07;;;1.87;;
15706;SDS011;7953;54.302;10.128;2022-09-13T08:16:10;5.23;;;1.17;;
15706;SDS011;7953;54.302;10.128;2022-09-13T08:18:41;5.30;;;1.40;;
15706;SDS011;7953;54.302;10.128;2022-09-13T08:21:09;5.83;;;1.50;;
15706;SDS011;7953;54.302;10.128;2022-09-13T08:23:36;4.70;;;1.47;;
15706;SDS011;7953;54.302;10.128;2022-09-13T08:26:04;8.07;;;1.90;;
15706;SDS011;7953;54.302;10.128;2022-09-13T08:28:32;6.80;;;1.63;;
15706;SDS011;7953;54.302;10.128;2022-09-13T08:31:05;3.87;;;1.30;;
15706;SDS011;7953;54.302;10.128;2022-09-13T08:33:32;6.60;;;1.70;;
15706;SDS011;7953;54.302;10.128;2022-09-13T08:36:00;5.93;;;1.10;;
15706;SDS011;7953;54.302;10.128;2022-09-13T08:38:28;9.17;;;1.77;;
15706;SDS011;7953;54.302;10.128;2022-09-13T08:40:57;13.67;;;2.07;;
15706;SDS011;7953;54.302;10.128;2022-09-13T08:43:31;5.73;;;1.50;;
15706;SDS011;7953;54.302;10.128;2022-09-13T08:46:16;8.60;;;1.97;;
15706;SDS011;7953;54.302;10.128;2022-09-13T08:49:03;7.43;;;1.60;;
15706;SDS011;7953;54.302;10.128;2022-09-13T08:51:34;11.00;;;2.33;;
15706;SDS011;7953;54.302;10.128;2022-09-13T08:54:07;5.20;;;1.33;;
15706;SDS011;7953;54.302;10.128;2022-09-13T08:56:37;8.97;;;1.67;;
15706;SDS011;7953;54.302;10.128;2022-09-13T08:59:21;5.97;;;1.30;;
15706;SDS011;7953;54.302;10.128;2022-09-13T09:01:58;5.37;;;1.70;;
15706;SDS011;7953;54.302;10.128;2022-09-13T09:04:37;5.30;;;1.40;;
15706;SDS011;7953;54.302;10.128;2022-09-13T09:07:09;6.07;;;1.37;;
15706;SDS011;7953;54.302;10.128;2022-09-13T09:09:40;3.67;;;1.20;;
15706;SDS011;7953;54.302;10.128;2022-09-13T09:12:13;5.30;;;1.60;;
15706;SDS011;7953;54.302;10.128;2022-09-13T09:14:51;3.37;;;1.27;;
15706;SDS011;7953;54.302;10.128;2022-09-13T09:17:33;6.93;;;1.43;;
15706;SDS011;7953;54.302;10.128;2022-09-13T09:20:13;5.87;;;1.40;;
15706;SDS011;7953;54.302;10.128;2022-09-13T09:22:47;5.53;;;1.20;;
15706;SDS011;7953;54.302;10.128;2022-09-13T09:25:16;7.13;;;1.33;;
15706;SDS011;7953;54.302;10.128;2022-09-13T09:27:45;3.73;;;1.20;;
15706;SDS011;7953;54.302;10.128;2022-09-13T09:30:12;6.97;;;1.57;;
15706;SDS011;7953;54.302;10.128;2022-09-13T09:32:48;4.47;;;1.40;;
15706;SDS011;7953;54.302;10.128;2022-09-13T09:35:37;5.80;;;1.30;;
15706;SDS011;7953;54.302;10.128;2022-09-13T09:41:05;5.43;;;1.37;;
15706;SDS011;7953;54.302;10.128;2022-09-13T09:43:41;7.30;;;1.47;;
15706;SDS011;7953;54.302;10.128;2022-09-13T09:46:11;4.20;;;1.33;;
15706;SDS011;7953;54.302;10.128;2022-09-13T09:48:44;5.30;;;1.37;;
15706;SDS011;7953;54.302;10.128;2022-09-13T09:51:17;3.67;;;1.23;;
15706;SDS011;7953;54.302;10.128;2022-09-13T09:53:47;6.97;;;1.50;;
15706;SDS011;7953;54.302;10.128;2022-09-13T09:56:21;4.60;;;1.43;;
15706;SDS011;7953;54.302;10.128;2022-09-13T09:58:49;6.70;;;1.33;;
15706;SDS011;7953;54.302;10.128;2022-09-13T10:01:19;3.73;;;1.27;;
15706;SDS011;7953;54.302;10.128;2022-09-13T10:03:52;4.10;;;1.27;;
15706;SDS011;7953;54.302;10.128;2022-09-13T10:06:25;5.40;;;1.37;;
15706;SDS011;7953;54.302;10.128;2022-09-13T10:08:55;6.77;;;1.73;;
15706;SDS011;7953;54.302;10.128;2022-09-13T10:11:36;6.60;;;1.30;;
15706;SDS011;7953;54.302;10.128;2022-09-13T10:14:04;5.10;;;1.43;;
15706;SDS011;7953;54.302;10.128;2022-09-13T10:16:31;4.07;;;1.33;;
15706;SDS011;7953;54.302;10.128;2022-09-13T10:19:15;4.67;;;1.40;;
15706;SDS011;7953;54.302;10.128;2022-09-13T10:21:58;6.33;;;1.30;;
15706;SDS011;7953;54.302;10.128;2022-09-13T10:24:27;6.07;;;0.90;;
15706;SDS011;7953;54.302;10.128;2022-09-13T10:26:54;3.63;;;1.13;;
15706;SDS011;7953;54.302;10.128;2022-09-13T10:29:22;5.77;;;1.67;;
15706;SDS011;7953;54.302;10.128;2022-09-13T10:31:51;3.80;;;0.97;;
15706;SDS011;7953;54.302;10.128;2022-09-13T10:34:24;1.20;;;0.83;;
15706;SDS011;7953;54.302;10.128;2022-09-13T10:36:55;5.20;;;1.57;;
15706;SDS011;7953;54.302;10.128;2022-09-13T10:39:24;3.37;;;1.03;;
15706;SDS011;7953;54.302;10.128;2022-09-13T10:41:53;7.57;;;1.40;;
15706;SDS011;7953;54.302;10.128;2022-09-13T10:44:24;5.77;;;1.20;;
15706;SDS011;7953;54.302;10.128;2022-09-13T10:46:55;3.93;;;1.30;;
15706;SDS011;7953;54.302;10.128;2022-09-13T10:49:38;4.83;;;1.40;;
15706;SDS011;7953;54.302;10.128;2022-09-13T10:57:52;2.43;;;0.90;;
15706;SDS011;7953;54.302;10.128;2022-09-13T11:00:21;6.23;;;1.20;;
15706;SDS011;7953;54.302;10.128;2022-09-13T11:02:58;2.63;;;0.90;;
15706;SDS011;7953;54.302;10.128;2022-09-13T11:05:40;2.30;;;0.93;;
15706;SDS011;7953;54.302;10.128;2022-09-13T11:08:19;8.10;;;1.10;;
15706;SDS011;7953;54.302;10.128;2022-09-13T11:11:01;2.90;;;1.10;;
15706;SDS011;7953;54.302;10.128;2022-09-13T11:13:39;4.43;;;1.47;;
15706;SDS011;7953;54.302;10.128;2022-09-13T11:16:26;3.07;;;0.90;;
15706;SDS011;7953;54.302;10.128;2022-09-13T11:19:16;4.43;;;1.33;;
15706;SDS011;7953;54.302;10.128;2022-09-13T11:22:19;5.83;;;1.37;;
15706;SDS011;7953;54.302;10.128;2022-09-13T11:25:00;4.10;;;0.93;;
15706;SDS011;7953;54.302;10.128;2022-09-13T11:27:38;4.73;;;1.20;;
15706;SDS011;7953;54.302;10.128;2022-09-13T11:30:16;5.00;;;1.07;;
15706;SDS011;7953;54.302;10.128;2022-09-13T11:32:50;7.13;;;1.60;;
15706;SDS011;7953;54.302;10.128;2022-09-13T11:35:41;3.90;;;1.03;;
15706;SDS011;7953;54.302;10.128;2022-09-13T11:38:25;13.17;;;1.57;;
15706;SDS011;7953;54.302;10.128;2022-09-13T11:41:12;5.90;;;1.00;;
15706;SDS011;7953;54.302;10.128;2022-09-13T11:43:59;3.30;;;0.97;;
15706;SDS011;7953;54.302;10.128;2022-09-13T11:46:43;4.47;;;1.13;;
15706;SDS011;7953;54.302;10.128;2022-09-13T11:49:36;5.37;;;1.50;;
15706;SDS011;7953;54.302;10.128;2022-09-13T11:52:20;4.73;;;1.40;;
15706;SDS011;7953;54.302;10.128;2022-09-13T11:55:00;3.93;;;1.00;;
15706;SDS011;7953;54.302;10.128;2022-09-13T11:57:37;3.20;;;1.00;;
15706;SDS011;7953;54.302;10.128;2022-09-13T12:00:12;3.13;;;0.90;;
15706;SDS011;7953;54.302;10.128;2022-09-13T12:02:46;5.00;;;1.40;;
15706;SDS011;7953;54.302;10.128;2022-09-13T12:05:21;3.63;;;1.20;;
15706;SDS011;7953;54.302;10.128;2022-09-13T12:07:51;5.43;;;1.60;;
15706;SDS011;7953;54.302;10.128;2022-09-13T12:10:24;3.80;;;1.13;;
15706;SDS011;7953;54.302;10.128;2022-09-13T12:12:55;3.47;;;1.17;;
15706;SDS011;7953;54.302;10.128;2022-09-13T12:15:28;5.63;;;1.17;;
15706;SDS011;7953;54.302;10.128;2022-09-13T12:18:00;5.07;;;1.30;;
15706;SDS011;7953;54.302;10.128;2022-09-13T12:20:32;7.40;;;1.43;;
15706;SDS011;7953;54.302;10.128;2022-09-13T12:23:03;5.17;;;1.57;;
15706;SDS011;7953;54.302;10.128;2022-09-13T12:25:36;6.80;;;1.47;;
15706;SDS011;7953;54.302;10.128;2022-09-13T12:28:11;5.93;;;1.47;;
15706;SDS011;7953;54.302;10.128;2022-09-13T12:30:45;5.07;;;1.40;;
15706;SDS011;7953;54.302;10.128;2022-09-13T12:33:16;7.20;;;1.77;;
15706;SDS011;7953;54.302;10.128;2022-09-13T12:35:47;6.27;;;1.83;;
15706;SDS011;7953;54.302;10.128;2022-09-13T12:38:30;3.87;;;1.23;;
15706;SDS011;7953;54.302;10.128;2022-09-13T12:41:20;10.27;;;2.07;;
15706;SDS011;7953;54.302;10.128;2022-09-13T12:47:02;6.53;;;1.50;;
15706;SDS011;7953;54.302;10.128;2022-09-13T12:49:58;6.50;;;1.60;;
15706;SDS011;7953;54.302;10.128;2022-09-13T12:52:43;4.20;;;1.67;;
15706;SDS011;7953;54.302;10.128;2022-09-13T12:58:28;6.00;;;1.57;;
15706;SDS011;7953;54.302;10.128;2022-09-13T13:01:10;6.40;;;1.87;;
15706;SDS011;7953;54.302;10.128;2022-09-13T13:03:43;5.87;;;1.30;;
15706;SDS011;7953;54.302;10.128;2022-09-13T13:06:18;6.03;;;1.47;;
15706;SDS011;7953;54.302;10.128;2022-09-13T13:08:56;5.40;;;1.50;;
15706;SDS011;7953;54.302;10.128;2022-09-13T13:11:27;3.77;;;1.40;;
15706;SDS011;7953;54.302;10.128;2022-09-13T13:14:09;4.03;;;1.20;;
15706;SDS011;7953;54.302;10.128;2022-09-13T13:23:03;5.33;;;1.17;;
15706;SDS011;7953;54.302;10.128;2022-09-13T13:25:52;6.30;;;1.30;;
15706;SDS011;7953;54.302;10.128;2022-09-13T13:37:20;4.27;;;1.20;;
15706;SDS011;7953;54.302;10.128;2022-09-13T13:40:09;6.87;;;1.33;;
15706;SDS011;7953;54.302;10.128;2022-09-13T13:43:13;7.27;;;1.47;;
15706;SDS011;7953;54.302;10.128;2022-09-13T13:45:55;6.17;;;1.50;;
15706;SDS011;7953;54.302;10.128;2022-09-13T13:48:35;5.37;;;1.50;;
15706;SDS011;7953;54.302;10.128;2022-09-13T13:51:17;5.63;;;1.37;;
15706;SDS011;7953;54.302;10.128;2022-09-13T13:53:50;4.80;;;1.37;;
15706;SDS011;7953;54.302;10.128;2022-09-13T13:56:43;2.80;;;1.07;;
15706;SDS011;7953;54.302;10.128;2022-09-13T13:59:20;8.23;;;1.20;;
15706;SDS011;7953;54.302;10.128;2022-09-13T14:01:54;6.73;;;1.50;;
15706;SDS011;7953;54.302;10.128;2022-09-13T14:04:43;6.37;;;1.20;;
15706;SDS011;7953;54.302;10.128;2022-09-13T14:10:10;8.23;;;1.73;;
15706;SDS011;7953;54.302;10.128;2022-09-13T14:12:55;6.10;;;1.40;;
15706;SDS011;7953;54.302;10.128;2022-09-13T14:15:45;4.47;;;1.70;;
15706;SDS011;7953;54.302;10.128;2022-09-13T14:21:24;4.93;;;1.47;;
15706;SDS011;7953;54.302;10.128;2022-09-13T14:24:06;9.83;;;2.43;;
15706;SDS011;7953;54.302;10.128;2022-09-13T14:26:39;3.70;;;1.57;;
15706;SDS011;7953;54.302;10.128;2022-09-13T14:29:06;3.23;;;1.33;;
15706;SDS011;7953;54.302;10.128;2022-09-13T14:31:34;4.10;;;1.40;;
15706;SDS011;7953;54.302;10.128;2022-09-13T14:34:02;3.30;;;1.00;;
15706;SDS011;7953;54.302;10.128;2022-09-13T14:36:30;8.87;;;1.83;;
15706;SDS011;7953;54.302;10.128;2022-09-13T14:38:57;4.70;;;1.40;;
15706;SDS011;7953;54.302;10.128;2022-09-13T14:41:29;3.87;;;1.00;;
15706;SDS011;7953;54.302;10.128;2022-09-13T14:44:13;3.53;;;1.37;;
15706;SDS011;7953;54.302;10.128;2022-09-13T14:46:42;5.03;;;1.50;;
15706;SDS011;7953;54.302;10.128;2022-09-13T14:49:14;4.83;;;1.30;;
15706;SDS011;7953;54.302;10.128;2022-09-13T14:51:50;5.00;;;1.70;;
15706;SDS011;7953;54.302;10.128;2022-09-13T14:54:23;4.40;;;1.13;;
15706;SDS011;7953;54.302;10.128;2022-09-13T14:56:56;2.20;;;1.03;;
15706;SDS011;7953;54.302;10.128;2022-09-13T14:59:26;6.47;;;1.60;;
15706;SDS011;7953;54.302;10.128;2022-09-13T15:01:58;5.70;;;1.80;;
15706;SDS011;7953;54.302;10.128;2022-09-13T15:04:31;5.73;;;1.53;;
15706;SDS011;7953;54.302;10.128;2022-09-13T15:07:06;3.97;;;1.27;;
15706;SDS011;7953;54.302;10.128;2022-09-13T15:09:34;6.03;;;1.67;;
15706;SDS011;7953;54.302;10.128;2022-09-13T15:12:03;6.00;;;1.10;;
15706;SDS011;7953;54.302;10.128;2022-09-13T15:14:30;7.63;;;1.60;;
15706;SDS011;7953;54.302;10.128;2022-09-13T15:16:59;6.60;;;1.80;;
15706;SDS011;7953;54.302;10.128;2022-09-13T15:19:37;3.30;;;1.30;;
15706;SDS011;7953;54.302;10.128;2022-09-13T15:22:19;4.63;;;1.23;;
15706;SDS011;7953;54.302;10.128;2022-09-13T15:24:49;4.20;;;1.10;;
15706;SDS011;7953;54.302;10.128;2022-09-13T15:27:18;1.53;;;0.80;;
15706;SDS011;7953;54.302;10.128;2022-09-13T15:29:53;4.27;;;1.10;;
15706;SDS011;7953;54.302;10.128;2022-09-13T15:32:23;3.70;;;1.03;;
15706;SDS011;7953;54.302;10.128;2022-09-13T15:34:55;3.90;;;1.23;;
15706;SDS011;7953;54.302;10.128;2022-09-13T15:37:32;3.90;;;0.80;;
15706;SDS011;7953;54.302;10.128;2022-09-13T15:40:06;4.27;;;1.37;;
15706;SDS011;7953;54.302;10.128;2022-09-13T15:42:39;5.37;;;0.80;;
15706;SDS011;7953;54.302;10.128;2022-09-13T15:45:09;2.53;;;1.00;;
15706;SDS011;7953;54.302;10.128;2022-09-13T15:47:36;6.73;;;1.20;;
15706;SDS011;7953;54.302;10.128;2022-09-13T15:50:03;2.00;;;0.80;;
15706;SDS011;7953;54.302;10.128;2022-09-13T15:52:32;2.37;;;1.00;;
15706;SDS011;7953;54.302;10.128;2022-09-13T15:54:59;1.57;;;0.70;;
15706;SDS011;7953;54.302;10.128;2022-09-13T15:57:27;3.70;;;1.13;;
15706;SDS011;7953;54.302;10.128;2022-09-13T15:59:57;3.50;;;0.93;;
15706;SDS011;7953;54.302;10.128;2022-09-13T16:02:41;1.73;;;0.80;;
15706;SDS011;7953;54.302;10.128;2022-09-13T16:05:14;3.53;;;0.90;;
15706;SDS011;7953;54.302;10.128;2022-09-13T16:07:43;4.17;;;1.07;;
15706;SDS011;7953;54.302;10.128;2022-09-13T16:10:11;3.50;;;0.80;;
15706;SDS011;7953;54.302;10.128;2022-09-13T16:12:40;7.40;;;1.30;;
15706;SDS011;7953;54.302;10.128;2022-09-13T16:15:07;4.57;;;1.30;;
15706;SDS011;7953;54.302;10.128;2022-09-13T16:17:35;3.57;;;1.33;;
15706;SDS011;7953;54.302;10.128;2022-09-13T16:20:02;2.67;;;0.80;;
15706;SDS011;7953;54.302;10.128;2022-09-13T16:22:30;4.10;;;1.53;;
15706;SDS011;7953;54.302;10.128;2022-09-13T16:24:59;3.40;;;1.20;;
15706;SDS011;7953;54.302;10.128;2022-09-13T16:27:25;2.23;;;0.93;;
15706;SDS011;7953;54.302;10.128;2022-09-13T16:29:53;4.43;;;1.67;;
15706;SDS011;7953;54.302;10.128;2022-09-13T16:32:20;2.97;;;1.03;;
15706;SDS011;7953;54.302;10.128;2022-09-13T16:34:47;5.50;;;1.47;;
15706;SDS011;7953;54.302;10.128;2022-09-13T16:37:14;6.30;;;1.63;;
15706;SDS011;7953;54.302;10.128;2022-09-13T16:39:43;3.90;;;1.20;;
15706;SDS011;7953;54.302;10.128;2022-09-13T16:42:11;4.90;;;1.80;;
15706;SDS011;7953;54.302;10.128;2022-09-13T16:44:40;5.20;;;1.10;;